createdAt,value
2022-08-27T00:00:49.585Z,6.40
2022-08-27T00:03:18.537Z,6.40
2022-08-27T00:05:46.242Z,6.50
2022-08-27T00:08:16.640Z,6.60
2022-08-27T00:10:44.291Z,6.70
2022-08-27T00:13:11.921Z,6.30
2022-08-27T00:15:39.608Z,6.50
2022-08-27T00:18:07.703Z,6.50
2022-08-27T00:20:35.477Z,6.60
2022-08-27T00:23:03.124Z,6.60
2022-08-27T00:25:30.890Z,6.90
2022-08-27T00:27:58.584Z,6.50
2022-08-27T00:30:26.346Z,6.70
2022-08-27T00:32:54.024Z,6.40
2022-08-27T00:35:21.637Z,7.00
2022-08-27T00:37:50.154Z,6.90
2022-08-27T00:40:21.406Z,7.00
2022-08-27T00:42:49.927Z,6.70
2022-08-27T00:45:22.891Z,6.90
2022-08-27T00:47:54.960Z,6.90
2022-08-27T00:50:49.022Z,6.90
2022-08-27T00:53:23.188Z,7.00
2022-08-27T00:55:59.905Z,7.00
2022-08-27T00:58:32.402Z,6.50
2022-08-27T01:01:01.479Z,7.30
2022-08-27T01:03:29.475Z,7.00
2022-08-27T01:06:01.520Z,7.30
2022-08-27T01:08:33.892Z,7.70
2022-08-27T01:11:02.366Z,8.20
2022-08-27T01:13:44.205Z,7.20
2022-08-27T01:16:26.916Z,7.50
2022-08-27T01:18:56.025Z,7.00
2022-08-27T01:21:38.959Z,7.40
2022-08-27T01:24:35.756Z,6.90
2022-08-27T01:27:08.096Z,7.70
2022-08-27T01:29:42.682Z,7.00
2022-08-27T01:32:23.697Z,7.30
2022-08-27T01:34:51.861Z,7.40
2022-08-27T01:37:23.968Z,7.10
2022-08-27T01:39:54.090Z,7.10
2022-08-27T01:42:40.283Z,7.40
2022-08-27T01:45:12.914Z,7.00
2022-08-27T01:47:41.151Z,6.60
2022-08-27T01:50:14.427Z,7.00
2022-08-27T01:52:42.120Z,7.10
2022-08-27T01:55:12.917Z,7.40
2022-08-27T01:57:40.944Z,8.00
2022-08-27T02:00:22.527Z,6.90
2022-08-27T02:02:51.556Z,8.00
2022-08-27T02:05:20.029Z,7.60
2022-08-27T02:07:47.710Z,7.60
2022-08-27T02:10:21.049Z,7.60
2022-08-27T02:15:17.609Z,7.50
2022-08-27T02:17:46.362Z,7.30
2022-08-27T02:20:17.132Z,7.00
2022-08-27T02:22:45.209Z,7.50
2022-08-27T02:25:15.410Z,7.90
2022-08-27T02:27:44.126Z,7.40
2022-08-27T02:30:15.676Z,7.40
2022-08-27T02:32:45.560Z,7.60
2022-08-27T02:35:18.152Z,7.80
2022-08-27T02:37:46.412Z,7.80
2022-08-27T02:40:17.758Z,7.10
2022-08-27T02:42:46.571Z,7.50
2022-08-27T02:45:15.867Z,7.50
2022-08-27T02:47:43.626Z,7.80
2022-08-27T02:50:13.661Z,7.60
2022-08-27T02:52:41.761Z,7.80
2022-08-27T02:55:09.689Z,8.20
2022-08-27T02:57:38.417Z,7.40
2022-08-27T03:00:11.309Z,7.90
2022-08-27T03:02:39.210Z,7.50
2022-08-27T03:05:08.754Z,8.00
2022-08-27T03:07:37.233Z,7.20
2022-08-27T03:10:06.622Z,7.80
2022-08-27T03:12:36.242Z,7.60
2022-08-27T03:15:06.263Z,8.80
2022-08-27T03:17:49.832Z,8.50
2022-08-27T03:20:18.933Z,8.60
2022-08-27T03:22:46.655Z,7.90
2022-08-27T03:25:14.754Z,9.80
2022-08-27T03:27:42.583Z,9.40
2022-08-27T03:30:13.516Z,9.00
2022-08-27T03:32:42.147Z,8.90
2022-08-27T03:35:11.630Z,8.70
2022-08-27T03:37:39.603Z,8.00
2022-08-27T03:40:08.158Z,8.90
2022-08-27T03:42:37.261Z,8.40
2022-08-27T03:45:06.935Z,8.20
2022-08-27T03:47:35.601Z,8.20
2022-08-27T03:50:05.896Z,8.50
2022-08-27T03:52:35.712Z,8.70
2022-08-27T03:55:07.472Z,7.80
2022-08-27T03:57:35.736Z,7.90
2022-08-27T04:00:06.797Z,8.30
2022-08-27T04:02:41.824Z,8.10
2022-08-27T04:05:12.760Z,8.10
2022-08-27T04:07:41.302Z,7.80
2022-08-27T04:10:11.164Z,8.30
2022-08-27T04:12:39.329Z,8.40
2022-08-27T04:15:09.478Z,8.00
2022-08-27T04:17:37.301Z,8.00
2022-08-27T04:20:31.677Z,8.10
2022-08-27T04:22:55.404Z,8.10
2022-08-27T04:25:23.103Z,8.20
2022-08-27T04:27:51.107Z,8.10
2022-08-27T04:30:19.308Z,7.90
2022-08-27T04:32:46.982Z,7.90
2022-08-27T04:35:14.646Z,8.50
2022-08-27T04:37:42.376Z,8.40
2022-08-27T04:40:10.832Z,8.70
2022-08-27T04:42:38.624Z,8.50
2022-08-27T04:45:06.776Z,9.10
2022-08-27T04:47:35.596Z,8.20
2022-08-27T04:50:04.254Z,7.90
2022-08-27T04:52:33.617Z,8.80
2022-08-27T04:55:09.284Z,8.70
2022-08-27T04:57:37.978Z,8.60
2022-08-27T05:00:07.988Z,8.40
2022-08-27T05:02:35.618Z,8.60
2022-08-27T05:05:03.409Z,8.30
2022-08-27T05:07:31.114Z,8.70
2022-08-27T05:09:58.762Z,8.20
2022-08-27T05:12:26.430Z,8.40
2022-08-27T05:14:54.622Z,8.10
2022-08-27T05:17:22.304Z,8.30
2022-08-27T05:19:50.007Z,8.00
2022-08-27T05:22:17.680Z,8.30
2022-08-27T05:24:50.236Z,8.20
2022-08-27T05:27:18.334Z,8.20
2022-08-27T05:29:45.956Z,8.90
2022-08-27T05:32:13.651Z,8.40
2022-08-27T05:34:41.374Z,8.40
2022-08-27T05:37:09.066Z,8.20
2022-08-27T05:39:36.824Z,8.00
2022-08-27T05:42:04.711Z,8.40
2022-08-27T05:44:41.362Z,7.90
2022-08-27T05:47:10.202Z,8.50
2022-08-27T05:49:37.978Z,8.40
2022-08-27T05:52:09.472Z,8.50
2022-08-27T05:54:37.689Z,8.60
2022-08-27T05:57:05.894Z,8.30
2022-08-27T05:59:49.651Z,8.10
2022-08-27T06:02:19.102Z,8.10
2022-08-27T06:04:47.296Z,8.30
2022-08-27T06:07:15.493Z,8.10
2022-08-27T06:09:43.309Z,8.50
2022-08-27T06:12:11.010Z,8.20
2022-08-27T06:14:38.824Z,8.20
2022-08-27T06:17:06.514Z,8.30
2022-08-27T06:19:36.277Z,8.10
2022-08-27T06:22:09.774Z,8.90
2022-08-27T06:24:42.580Z,7.90
2022-08-27T06:27:16.967Z,8.40
2022-08-27T06:29:45.243Z,8.20
2022-08-27T06:32:14.665Z,8.30
2022-08-27T06:34:42.435Z,8.30
2022-08-27T06:37:10.457Z,7.80
2022-08-27T06:39:39.323Z,8.00
2022-08-27T06:42:11.035Z,8.10
2022-08-27T06:44:40.981Z,8.00
2022-08-27T06:47:08.735Z,8.50
2022-08-27T06:49:40.299Z,8.10
2022-08-27T06:52:08.107Z,8.20
2022-08-27T06:54:37.503Z,7.90
2022-08-27T06:57:05.193Z,8.40
2022-08-27T06:59:33.295Z,7.80
2022-08-27T07:02:01.011Z,8.20
2022-08-27T07:04:32.198Z,7.90
2022-08-27T07:07:02.666Z,7.30
2022-08-27T07:09:32.413Z,7.90
2022-08-27T07:12:01.405Z,7.90
2022-08-27T07:14:32.944Z,7.80
2022-08-27T07:17:05.427Z,8.10
2022-08-27T07:19:41.170Z,8.20
2022-08-27T07:22:09.371Z,8.40
2022-08-27T07:24:38.078Z,7.80
2022-08-27T07:27:06.919Z,8.00
2022-08-27T07:29:34.626Z,8.20
2022-08-27T07:32:02.503Z,8.20
2022-08-27T07:34:30.124Z,7.80
2022-08-27T07:36:57.773Z,8.90
2022-08-27T07:39:25.472Z,10.40
2022-08-27T07:42:12.923Z,8.30
2022-08-27T07:44:40.587Z,7.80
2022-08-27T07:47:08.310Z,8.20
2022-08-27T07:49:36.307Z,8.10
2022-08-27T07:52:04.455Z,7.70
2022-08-27T07:54:32.964Z,8.10
2022-08-27T07:57:01.538Z,7.80
2022-08-27T07:59:29.482Z,8.10
2022-08-27T08:01:57.964Z,8.20
2022-08-27T08:04:26.640Z,7.60
2022-08-27T08:06:55.787Z,7.90
2022-08-27T08:09:24.901Z,7.30
2022-08-27T08:11:53.994Z,7.80
2022-08-27T08:14:22.179Z,8.00
2022-08-27T08:16:50.290Z,7.80
2022-08-27T08:19:18.091Z,8.40
2022-08-27T08:21:45.725Z,8.00
2022-08-27T08:24:13.392Z,7.40
2022-08-27T08:26:42.004Z,7.10
2022-08-27T08:29:13.829Z,7.00
2022-08-27T08:31:50.272Z,8.00
2022-08-27T08:34:19.778Z,7.70
2022-08-27T08:36:52.456Z,8.10
2022-08-27T08:39:23.975Z,6.90
2022-08-27T08:41:57.504Z,7.30
2022-08-27T08:44:31.811Z,7.60
2022-08-27T08:47:14.578Z,7.60
2022-08-27T08:50:05.551Z,7.20
2022-08-27T08:52:52.309Z,7.10
2022-08-27T08:55:36.624Z,7.60
2022-08-27T08:58:15.165Z,7.50
2022-08-27T09:00:45.524Z,7.60
2022-08-27T09:03:15.925Z,7.50
2022-08-27T09:06:19.748Z,7.00
2022-08-27T09:11:46.775Z,8.00
2022-08-27T09:14:45.354Z,7.30
2022-08-27T09:17:14.743Z,7.60
2022-08-27T09:19:43.130Z,6.60
2022-08-27T09:22:24.095Z,6.90
2022-08-27T09:25:11.640Z,6.30
2022-08-27T09:27:42.793Z,7.20
2022-08-27T09:30:16.470Z,6.70
2022-08-27T09:32:44.246Z,7.50
2022-08-27T09:35:15.186Z,6.80
2022-08-27T09:37:47.968Z,6.70
2022-08-27T09:40:23.835Z,7.30
2022-08-27T09:42:55.912Z,7.20
2022-08-27T09:45:29.932Z,6.70
2022-08-27T09:48:07.863Z,6.00
2022-08-27T09:51:00.468Z,6.10
2022-08-27T09:53:44.794Z,6.60
2022-08-27T09:56:35.486Z,6.50
2022-08-27T09:59:08.832Z,7.30
2022-08-27T10:02:13.120Z,7.40
2022-08-27T10:04:51.860Z,6.20
2022-08-27T10:07:41.870Z,6.60
2022-08-27T10:10:17.918Z,6.00
2022-08-27T10:12:51.828Z,6.20
2022-08-27T10:15:19.882Z,7.80
2022-08-27T10:17:50.395Z,7.20
2022-08-27T10:20:30.543Z,6.70
2022-08-27T10:23:29.667Z,5.60
2022-08-27T10:26:09.069Z,6.20
2022-08-27T10:29:08.109Z,5.90
2022-08-27T10:32:04.264Z,6.20
2022-08-27T10:34:57.111Z,6.20
2022-08-27T10:37:57.427Z,6.20
2022-08-27T10:40:50.790Z,6.30
2022-08-27T10:43:40.771Z,6.20
2022-08-27T10:46:27.326Z,5.90
2022-08-27T10:49:21.145Z,6.50
2022-08-27T10:52:13.377Z,6.10
2022-08-27T10:54:56.940Z,5.70
2022-08-27T10:57:55.179Z,6.40
2022-08-27T11:00:33.361Z,6.40
2022-08-27T11:03:37.254Z,5.80
2022-08-27T11:06:33.745Z,5.80
2022-08-27T11:09:17.387Z,6.00
2022-08-27T11:14:46.126Z,5.20
2022-08-27T11:17:32.645Z,5.70
2022-08-27T11:20:21.620Z,5.60
2022-08-27T11:22:56.529Z,5.70
2022-08-27T11:25:58.329Z,5.90
2022-08-27T11:28:30.392Z,5.30
2022-08-27T11:31:08.520Z,5.50
2022-08-27T11:33:42.802Z,5.30
2022-08-27T11:36:32.980Z,5.60
2022-08-27T11:39:21.688Z,5.50
2022-08-27T11:42:21.324Z,5.70
2022-08-27T11:44:57.509Z,5.20
2022-08-27T11:47:27.771Z,5.50
2022-08-27T11:50:02.046Z,5.20
2022-08-27T11:52:35.161Z,5.20
2022-08-27T11:55:31.459Z,5.20
2022-08-27T11:58:04.265Z,5.20
2022-08-27T12:03:23.632Z,4.80
2022-08-27T12:05:54.357Z,5.20
2022-08-27T12:08:21.902Z,5.00
2022-08-27T12:11:02.289Z,5.20
2022-08-27T12:13:43.563Z,5.10
2022-08-27T12:16:47.527Z,4.90
2022-08-27T12:19:47.179Z,5.00
2022-08-27T12:23:01.434Z,5.10
2022-08-27T12:25:29.113Z,5.20
2022-08-27T12:28:04.271Z,5.30
2022-08-27T12:30:39.199Z,4.80
2022-08-27T12:33:18.742Z,5.30
2022-08-27T12:35:50.433Z,4.70
2022-08-27T12:38:36.718Z,4.80
2022-08-27T12:41:09.113Z,4.50
2022-08-27T12:43:43.166Z,4.90
2022-08-27T12:46:19.146Z,4.70
2022-08-27T12:48:54.148Z,4.90
2022-08-27T12:51:38.071Z,6.70
2022-08-27T12:54:36.635Z,7.00
2022-08-27T12:57:30.378Z,5.40
2022-08-27T13:00:12.716Z,4.60
2022-08-27T13:03:03.894Z,4.30
2022-08-27T13:05:49.509Z,4.30
2022-08-27T13:08:21.542Z,4.20
2022-08-27T13:10:50.282Z,4.00
2022-08-27T13:13:22.097Z,3.70
2022-08-27T13:15:53.202Z,3.90
2022-08-27T13:18:22.150Z,5.00
2022-08-27T13:21:00.119Z,4.30
2022-08-27T13:23:28.018Z,3.60
2022-08-27T13:26:10.122Z,3.60
2022-08-27T13:28:40.958Z,3.50
2022-08-27T13:33:42.049Z,3.90
2022-08-27T13:36:10.241Z,3.90
2022-08-27T13:38:49.953Z,3.90
2022-08-27T13:41:30.375Z,3.60
2022-08-27T13:44:06.345Z,3.50
2022-08-27T13:46:48.705Z,3.40
2022-08-27T13:49:25.569Z,3.40
2022-08-27T13:52:17.363Z,3.40
2022-08-27T13:54:49.244Z,3.40
2022-08-27T13:57:48.820Z,3.30
2022-08-27T14:00:21.375Z,3.30
2022-08-27T14:02:55.830Z,3.30
2022-08-27T14:05:24.116Z,3.60
2022-08-27T14:07:58.248Z,3.50
2022-08-27T14:10:33.425Z,3.80
2022-08-27T14:13:06.276Z,3.40
2022-08-27T14:15:38.420Z,3.30
2022-08-27T14:18:32.175Z,3.60
2022-08-27T14:21:09.398Z,3.60
2022-08-27T14:23:37.346Z,3.50
2022-08-27T14:26:05.576Z,3.40
2022-08-27T14:28:33.224Z,3.50
2022-08-27T14:31:00.934Z,3.60
2022-08-27T14:33:28.695Z,3.60
2022-08-27T14:35:56.388Z,3.50
2022-08-27T14:38:26.701Z,3.70
2022-08-27T14:40:54.926Z,3.60
2022-08-27T14:43:22.968Z,3.70
2022-08-27T14:45:53.346Z,3.50
2022-08-27T14:50:58.916Z,3.60
2022-08-27T14:53:26.907Z,3.50
2022-08-27T14:55:56.050Z,3.60
2022-08-27T14:58:23.683Z,3.50
2022-08-27T15:00:52.077Z,3.60
2022-08-27T15:03:20.021Z,3.90
2022-08-27T15:05:47.762Z,3.70
2022-08-27T15:08:16.801Z,3.80
2022-08-27T15:10:45.289Z,4.00
2022-08-27T15:13:13.233Z,4.10
2022-08-27T15:15:41.205Z,3.80
2022-08-27T15:18:09.494Z,3.80
2022-08-27T15:20:37.563Z,4.00
2022-08-27T15:23:05.262Z,4.10
2022-08-27T15:25:33.413Z,4.00
2022-08-27T15:28:01.155Z,4.50
2022-08-27T15:30:29.171Z,4.00
2022-08-27T15:32:56.944Z,3.90
2022-08-27T15:35:27.417Z,4.10
2022-08-27T15:37:56.944Z,4.00
2022-08-27T15:40:26.838Z,3.90
2022-08-27T15:43:02.211Z,4.00
2022-08-27T15:45:32.325Z,3.80
2022-08-27T15:48:00.342Z,4.00
2022-08-27T15:50:31.022Z,4.10
2022-08-27T15:53:01.851Z,4.00
2022-08-27T15:55:33.184Z,3.80
2022-08-27T15:58:01.252Z,4.00
2022-08-27T16:00:32.419Z,3.90
2022-08-27T16:05:33.027Z,4.30
2022-08-27T16:08:00.725Z,4.20
2022-08-27T16:10:28.392Z,4.30
2022-08-27T16:12:56.080Z,4.30
2022-08-27T16:15:23.741Z,4.20
2022-08-27T16:18:00.101Z,4.40
2022-08-27T16:20:28.662Z,4.40
2022-08-27T16:22:56.437Z,4.50
2022-08-27T16:25:24.178Z,4.70
2022-08-27T16:27:53.391Z,4.50
2022-08-27T16:30:22.519Z,4.30
2022-08-27T16:32:55.899Z,4.40
2022-08-27T16:35:25.059Z,4.80
2022-08-27T16:37:52.676Z,5.50
2022-08-27T16:40:21.370Z,5.10
2022-08-27T16:42:51.228Z,4.90
2022-08-27T16:45:26.100Z,4.70
2022-08-27T16:48:09.898Z,5.00
2022-08-27T16:50:39.539Z,5.20
2022-08-27T16:53:13.899Z,5.30
2022-08-27T16:55:43.757Z,5.20
2022-08-27T16:58:31.711Z,5.20
2022-08-27T17:01:04.051Z,5.20
2022-08-27T17:05:59.726Z,5.20
2022-08-27T17:08:30.242Z,5.30
2022-08-27T17:10:58.609Z,5.50
2022-08-27T17:13:30.110Z,5.40
2022-08-27T17:15:57.966Z,5.60
2022-08-27T17:18:27.532Z,5.30
2022-08-27T17:20:56.984Z,5.60
2022-08-27T17:23:29.407Z,5.50
2022-08-27T17:25:57.096Z,5.40
2022-08-27T17:28:24.885Z,5.50
2022-08-27T17:30:52.635Z,5.90
2022-08-27T17:33:28.562Z,7.70
2022-08-27T17:35:57.617Z,9.20
2022-08-27T17:38:25.247Z,12.10
2022-08-27T17:40:54.608Z,13.70
2022-08-27T17:43:22.884Z,10.20
2022-08-27T17:45:50.586Z,7.40
2022-08-27T17:48:22.652Z,7.20
2022-08-27T17:50:53.554Z,7.10
2022-08-27T17:53:21.489Z,6.20
2022-08-27T17:55:49.212Z,6.30
2022-08-27T17:58:16.925Z,7.00
2022-08-27T18:00:44.971Z,6.80
2022-08-27T18:03:18.979Z,6.30
2022-08-27T18:05:47.607Z,7.20
2022-08-27T18:08:15.311Z,7.30
2022-08-27T18:10:44.295Z,7.20
2022-08-27T18:13:14.728Z,7.90
2022-08-27T18:15:42.806Z,8.20
2022-08-27T18:18:11.480Z,10.00
2022-08-27T18:20:42.653Z,11.10
2022-08-27T18:23:10.998Z,30.10
2022-08-27T18:25:39.655Z,17.80
2022-08-27T18:28:11.073Z,13.70
2022-08-27T18:30:41.473Z,10.20
2022-08-27T18:33:10.453Z,8.90
2022-08-27T18:35:38.988Z,9.40
2022-08-27T18:38:07.136Z,8.40
2022-08-27T18:40:38.419Z,9.20
2022-08-27T18:43:06.084Z,9.50
2022-08-27T18:45:36.006Z,10.40
2022-08-27T18:48:24.791Z,11.10
2022-08-27T18:50:58.401Z,10.10
2022-08-27T18:53:29.007Z,9.90
2022-08-27T18:55:56.992Z,10.80
2022-08-27T18:58:25.166Z,10.00
2022-08-27T19:00:59.048Z,12.20
2022-08-27T19:03:31.228Z,12.90
2022-08-27T19:06:00.624Z,14.10
2022-08-27T19:08:28.856Z,13.50
2022-08-27T19:10:56.486Z,12.70
2022-08-27T19:13:24.190Z,11.80
2022-08-27T19:15:57.295Z,12.00
2022-08-27T19:18:27.463Z,12.10
2022-08-27T19:20:55.773Z,13.50
2022-08-27T19:23:23.953Z,14.20
2022-08-27T19:25:52.925Z,15.00
2022-08-27T19:28:26.618Z,14.10
2022-08-27T19:30:54.687Z,13.90
2022-08-27T19:33:22.685Z,13.10
2022-08-27T19:35:50.362Z,13.50
2022-08-27T19:38:18.216Z,14.10
2022-08-27T19:40:45.811Z,12.70
2022-08-27T19:43:13.427Z,12.30
2022-08-27T19:45:41.470Z,11.70
2022-08-27T19:48:09.191Z,11.60
2022-08-27T19:50:36.785Z,10.80
2022-08-27T19:53:04.405Z,10.40
2022-08-27T19:55:32.594Z,10.60
2022-08-27T19:58:00.225Z,10.20
2022-08-27T20:00:28.316Z,10.90
2022-08-27T20:02:56.253Z,11.40
2022-08-27T20:05:25.017Z,11.70
2022-08-27T20:07:53.096Z,13.60
2022-08-27T20:10:31.586Z,13.30
2022-08-27T20:13:05.565Z,15.00
2022-08-27T20:15:35.200Z,13.30
2022-08-27T20:18:04.159Z,13.20
2022-08-27T20:20:33.050Z,13.00
2022-08-27T20:23:03.572Z,12.20
2022-08-27T20:25:33.877Z,12.60
2022-08-27T20:28:16.294Z,12.20
2022-08-27T20:30:49.444Z,12.60
2022-08-27T20:33:17.156Z,12.50
2022-08-27T20:35:44.901Z,13.60
2022-08-27T20:38:12.854Z,13.30
2022-08-27T20:40:40.906Z,13.50
2022-08-27T20:43:08.549Z,14.50
2022-08-27T20:45:37.333Z,13.20
2022-08-27T20:48:05.094Z,14.20
2022-08-27T20:50:33.589Z,13.30
2022-08-27T20:53:01.385Z,13.30
2022-08-27T20:55:29.403Z,12.70
2022-08-27T20:58:13.352Z,14.00
2022-08-27T21:00:42.970Z,12.40
2022-08-27T21:03:13.192Z,11.50
2022-08-27T21:05:43.535Z,11.30
2022-08-27T21:08:11.534Z,11.20
2022-08-27T21:10:45.290Z,10.60
2022-08-27T21:13:13.686Z,10.50
2022-08-27T21:15:41.462Z,11.20
2022-08-27T21:18:09.154Z,10.90
2022-08-27T21:20:37.194Z,11.30
2022-08-27T21:23:04.918Z,12.00
2022-08-27T21:25:32.551Z,11.60
2022-08-27T21:28:03.350Z,11.50
2022-08-27T21:30:31.081Z,10.30
2022-08-27T21:32:58.856Z,11.00
2022-08-27T21:35:30.251Z,11.20
2022-08-27T21:37:59.540Z,12.00
2022-08-27T21:40:28.325Z,11.40
2022-08-27T21:42:58.150Z,10.40
2022-08-27T21:45:25.986Z,11.10
2022-08-27T21:47:54.075Z,10.90
2022-08-27T21:50:23.456Z,9.60
2022-08-27T21:52:51.696Z,10.00
2022-08-27T21:55:19.932Z,9.60
2022-08-27T21:57:47.669Z,9.70
2022-08-27T22:00:38.352Z,9.70
2022-08-27T22:03:10.212Z,9.60
2022-08-27T22:05:40.584Z,9.10
2022-08-27T22:08:10.784Z,9.50
2022-08-27T22:10:40.431Z,9.80
2022-08-27T22:13:09.273Z,9.40
2022-08-27T22:15:37.937Z,9.80
2022-08-27T22:18:06.384Z,8.80
2022-08-27T22:20:34.991Z,9.70
2022-08-27T22:23:05.100Z,9.20
2022-08-27T22:25:32.809Z,9.40
2022-08-27T22:28:00.444Z,9.00
2022-08-27T22:30:28.520Z,9.20
2022-08-27T22:32:56.962Z,8.80
2022-08-27T22:35:24.650Z,9.20
2022-08-27T22:37:55.220Z,9.80
2022-08-27T22:40:24.599Z,9.10
2022-08-27T22:42:54.049Z,9.70
2022-08-27T22:45:22.230Z,9.40
2022-08-27T22:47:50.139Z,9.10
2022-08-27T22:50:18.738Z,9.10
2022-08-27T22:52:47.692Z,9.40
2022-08-27T22:55:19.358Z,10.20
2022-08-27T22:57:52.649Z,9.40
2022-08-27T23:00:27.013Z,9.60
2022-08-27T23:02:55.557Z,9.10
2022-08-27T23:05:24.503Z,8.90
2022-08-27T23:07:54.969Z,9.20
2022-08-27T23:10:24.493Z,8.90
2022-08-27T23:12:53.786Z,9.10
2022-08-27T23:15:28.098Z,9.10
2022-08-27T23:17:56.684Z,9.10
2022-08-27T23:20:25.922Z,8.30
2022-08-27T23:22:54.774Z,8.80
2022-08-27T23:25:40.629Z,8.60
2022-08-27T23:28:15.061Z,8.90
2022-08-27T23:30:44.803Z,8.00
2022-08-27T23:33:13.243Z,8.80
2022-08-27T23:35:44.351Z,8.90
2022-08-27T23:38:12.156Z,8.20
2022-08-27T23:40:40.905Z,8.20
2022-08-27T23:43:08.872Z,7.70
2022-08-27T23:45:40.599Z,8.30
2022-08-27T23:48:08.576Z,8.20
2022-08-27T23:50:37.101Z,8.20
2022-08-27T23:53:07.384Z,9.40
2022-08-27T23:55:36.156Z,7.90
2022-08-27T23:58:04.593Z,8.80
